Time;durP1;ratioP1;P1;durP2;ratioP2;P2;SDS_P1;SDS_P2;PMS_P1;PMS_P2;Temp;Humidity;BMP_temperature;BMP_pressure;BME280_temperature;BME280_humidity;BME280_pressure;Samples;Min_cycle;Max_cycle;Signal;HPM_P1;HPM_P2
2024/01/11 00:00:10;;;;;;;234.90;98.50;;;;;;;-9.63;79.89;99714.38;435163;1256;107453;-43
2024/01/11 00:20:40;;;;;;;234.50;107.10;;;;;;;-9.68;79.81;99689.17;435340;1256;110389;-40
2024/01/11 00:30:48;;;;;;;230.70;101.80;;;;;;;-9.76;79.91;99676.81;435173;1254;109281;-40
2024/01/11 01:01:11;;;;;;;197.70;88.10;;;;;;;-9.79;79.88;99683.23;435433;1256;99938;-41
2024/01/11 01:11:18;;;;;;;197.30;91.30;;;;;;;-9.84;79.81;99656.39;435513;1255;110394;-40
2024/01/11 01:21:25;;;;;;;190.50;86.20;;;;;;;-9.81;80.20;99644.11;435335;1254;108100;-41
2024/01/11 01:31:37;;;;;;;204.10;89.50;;;;;;;-9.69;80.24;99640.10;435100;1257;99245;-39
2024/01/11 01:41:44;;;;;;;199.30;88.70;;;;;;;-9.71;80.14;99635.92;435158;1264;107413;-40
2024/01/11 01:51:53;;;;;;;208.90;94.50;;;;;;;-9.69;80.09;99640.80;435371;1257;99282;-40
2024/01/11 02:02:00;;;;;;;200.70;88.90;;;;;;;-9.66;80.26;99661.77;435387;1254;111558;-41
2024/01/11 02:22:13;;;;;;;138.00;61.70;;;;;;;-9.71;79.94;99648.73;435392;1251;98880;-40
2024/01/11 02:32:20;;;;;;;190.30;84.40;;;;;;;-9.67;80.24;99614.77;435373;1254;108026;-40
2024/01/11 02:52:34;;;;;;;217.20;89.80;;;;;;;-9.52;80.20;99583.95;436029;1252;113004;-40
2024/01/11 03:02:41;;;;;;;209.80;94.00;;;;;;;-9.57;80.18;99592.41;435308;1254;108418;-40
2024/01/11 03:12:50;;;;;;;233.10;100.70;;;;;;;-9.73;80.02;99567.30;435392;1251;99240;-40
2024/01/11 03:22:57;;;;;;;221.20;102.80;;;;;;;-9.81;80.08;99556.95;435330;1250;108433;-40
2024/01/11 03:33:03;;;;;;;217.40;97.30;;;;;;;-9.72;80.24;99563.47;435285;1254;99237;-43
2024/01/11 03:43:10;;;;;;;225.80;94.80;;;;;;;-9.71;80.34;99574.15;435310;1254;111815;-41
2024/01/11 03:53:17;;;;;;;209.00;91.50;;;;;;;-9.74;80.20;99570.23;435265;1254;108812;-40
2024/01/11 04:03:24;;;;;;;201.80;85.60;;;;;;;-9.71;80.03;99567.85;435401;1250;99236;-40
2024/01/11 04:13:31;;;;;;;187.10;85.80;;;;;;;-9.73;79.96;99553.96;435140;1254;108074;-39
2024/01/11 04:23:38;;;;;;;202.90;84.10;;;;;;;-9.77;80.10;99525.34;435391;1251;99211;-41
2024/01/11 04:33:46;;;;;;;205.20;86.20;;;;;;;-9.70;80.35;99542.36;435235;1251;110444;-40
2024/01/11 04:43:54;;;;;;;182.90;80.40;;;;;;;-9.63;80.14;99515.92;435342;1254;109315;-41
2024/01/11 04:54:01;;;;;;;189.80;81.80;;;;;;;-9.60;80.10;99509.91;435315;1251;99228;-39
2024/01/11 05:04:09;;;;;;;190.30;86.00;;;;;;;-9.55;80.24;99489.67;435237;1254;109366;-40
2024/01/11 05:14:15;;;;;;;;;;;;;;;-9.53;80.11;99486.70;435101;1254;99314;-40
2024/01/11 05:24:22;;;;;;;186.50;82.30;;;;;;;-9.54;80.16;99478.87;435537;1266;112062;-39
2024/01/11 05:34:29;;;;;;;199.40;85.70;;;;;;;-9.50;80.30;99475.27;435364;1255;108441;-40
2024/01/11 05:44:37;;;;;;;183.70;83.80;;;;;;;-9.25;80.40;99472.18;435345;1255;99320;-40
2024/01/11 05:54:44;;;;;;;191.70;81.90;;;;;;;-8.99;80.48;99454.51;435259;1272;108794;-40
2024/01/11 06:04:51;;;;;;;192.20;82.00;;;;;;;-8.93;80.21;99418.64;435180;1254;99234;-40
2024/01/11 06:25:05;;;;;;;184.70;78.90;;;;;;;-8.37;80.36;99415.65;435322;1256;108336;-40
2024/01/11 06:35:12;;;;;;;171.90;75.10;;;;;;;-8.04;80.35;99399.62;435363;1254;99227;-40
2024/01/11 06:55:25;;;;;;;175.60;75.80;;;;;;;-7.57;80.21;99380.27;435300;1255;99214;-40
2024/01/11 07:25:44;;;;;;;142.30;64.60;;;;;;;-6.94;78.83;99348.60;435264;1254;97976;-40
2024/01/11 07:35:51;;;;;;;129.70;52.80;;;;;;;-6.80;78.45;99328.31;435747;1254;108982;-40
2024/01/11 07:45:58;;;;;;;127.60;60.00;;;;;;;-6.65;78.51;99334.45;435386;1250;99246;-40
2024/01/11 07:56:07;;;;;;;125.00;56.30;;;;;;;-6.41;77.75;99334.69;435332;1254;109348;-40
2024/01/11 08:06:14;;;;;;;126.70;55.00;;;;;;;-6.19;77.57;99331.98;435876;1254;108081;-39
2024/01/11 08:16:22;;;;;;;128.00;57.20;;;;;;;-5.98;77.55;99320.74;435307;1251;99259;-40
2024/01/11 08:46:41;;;;;;;121.10;53.30;;;;;;;-5.32;76.61;99338.11;435538;1254;110728;-40
2024/01/11 08:56:49;;;;;;;132.90;57.20;;;;;;;-4.81;76.36;99324.11;435320;1254;108364;-39
2024/01/11 09:06:56;;;;;;;131.70;51.80;;;;;;;-4.63;75.90;99321.05;435288;1254;99240;-40
2024/01/11 09:17:06;;;;;;;103.30;46.90;;;;;;;-4.43;74.97;99327.43;435202;1254;107778;-40
2024/01/11 09:27:13;;;;;;;99.70;48.80;;;;;;;-4.43;74.26;99338.24;435195;1254;98859;-40
2024/01/11 09:37:21;;;;;;;102.90;45.80;;;;;;;-4.33;74.68;99323.70;435325;1254;112925;-41
2024/01/11 09:47:30;;;;;;;111.30;43.30;;;;;;;-4.08;74.98;99300.30;435236;1250;108443;-40
2024/01/11 09:57:39;;;;;;;131.10;55.40;;;;;;;-3.91;74.97;99292.77;435204;1254;99138;-40
2024/01/11 10:07:47;;;;;;;123.30;52.40;;;;;;;-3.83;74.57;99287.77;435425;1254;111252;-41
2024/01/11 10:17:54;;;;;;;130.60;52.00;;;;;;;-3.83;74.57;99289.30;435258;1250;108359;-40
2024/01/11 10:28:01;;;;;;;122.40;49.20;;;;;;;-3.90;74.34;99310.57;435486;1254;99186;-38
2024/01/11 10:38:10;;;;;;;128.70;49.10;;;;;;;-3.87;74.39;99308.05;435227;1250;111342;-40
2024/01/11 10:48:22;;;;;;;149.60;57.10;;;;;;;-3.78;74.01;99284.98;435321;1254;107694;-40
2024/01/11 10:58:30;;;;;;;117.10;47.10;;;;;;;-3.76;73.89;99277.05;435259;1250;99250;-38
2024/01/11 11:18:45;;;;;;;140.10;53.60;;;;;;;-3.68;73.77;99236.27;435290;1255;97967;-40
2024/01/11 11:28:53;;;;;;;135.10;56.90;;;;;;;-3.35;74.08;99223.24;435490;1254;111882;-39
2024/01/11 11:39:00;;;;;;;171.00;66.90;;;;;;;-3.35;73.66;99233.55;435293;1250;108629;-39
2024/01/11 11:49:06;;;;;;;123.60;48.40;;;;;;;-3.53;73.62;99238.33;435311;1250;99262;-39
2024/01/11 11:59:15;;;;;;;130.50;54.30;;;;;;;-3.65;73.55;99234.43;435287;1256;107281;-39
2024/01/11 12:09:23;;;;;;;131.00;53.70;;;;;;;-3.69;73.88;99223.42;435437;1254;98808;-41
2024/01/11 12:19:30;;;;;;;136.00;55.40;;;;;;;-3.69;74.35;99209.70;435484;1256;111487;-40
2024/01/11 12:29:37;;;;;;;80.10;39.20;;;;;;;-3.66;74.50;99201.99;435241;1256;108147;-39
2024/01/11 12:50:03;;;;;;;120.20;50.50;;;;;;;-3.62;75.04;99163.92;435039;1250;359789;-38
2024/01/11 13:00:12;;;;;;;123.90;50.80;;;;;;;-3.54;75.87;99142.20;435368;1250;98015;-39
2024/01/11 13:10:19;;;;;;;116.90;48.00;;;;;;;-3.45;75.89;99130.95;435384;1254;111236;-40
2024/01/11 13:20:28;;;;;;;105.30;44.30;;;;;;;-3.48;76.06;99134.52;435364;1250;108222;-41
2024/01/11 13:50:49;;;;;;;66.60;30.40;;;;;;;-3.50;77.36;99143.10;435272;1255;99941;-39
2024/01/11 14:00:56;;;;;;;96.50;36.10;;;;;;;-3.54;77.99;99148.83;435393;1254;111738;-40
2024/01/11 14:11:05;;;;;;;84.20;35.90;;;;;;;-3.78;78.74;99151.08;435318;1251;108584;-40
2024/01/11 14:21:12;;;;;;;90.60;35.60;;;;;;;-3.99;79.69;99158.00;435389;1254;99231;-40
2024/01/11 14:31:19;;;;;;;59.70;32.30;;;;;;;-4.03;80.53;99169.33;435231;1255;112210;-41
2024/01/11 14:41:25;;;;;;;76.10;35.50;;;;;;;-4.07;81.17;99185.83;435322;1250;108435;-40
2024/01/11 15:01:39;;;;;;;69.90;32.20;;;;;;;-4.18;82.19;99189.02;435416;1254;112039;-39
2024/01/11 15:11:46;;;;;;;89.90;42.80;;;;;;;-4.18;82.64;99183.27;435158;1256;107675;-40
2024/01/11 15:21:54;;;;;;;67.50;35.20;;;;;;;-4.11;82.80;99181.36;435197;1256;99247;-39
2024/01/11 15:32:01;;;;;;;83.50;38.50;;;;;;;-4.07;83.41;99175.02;435436;1256;107243;-42
2024/01/11 15:42:08;;;;;;;74.90;31.70;;;;;;;-4.11;84.16;99181.22;435498;1250;98341;-40
2024/01/11 15:52:16;;;;;;;54.60;27.50;;;;;;;-4.08;84.68;99194.21;435486;1254;112370;-41
2024/01/11 16:02:23;;;;;;;62.50;30.00;;;;;;;-3.98;85.36;99192.17;435292;1250;108468;-40
2024/01/11 16:12:31;;;;;;;85.60;35.40;;;;;;;-3.96;85.92;99183.97;435546;1262;98699;-40
2024/01/11 16:32:44;;;;;;;66.10;29.90;;;;;;;-3.86;87.64;99201.05;435194;1256;107318;-40
2024/01/11 16:42:51;;;;;;;56.70;25.70;;;;;;;-3.79;87.81;99205.61;435419;1256;98493;-41
2024/01/11 16:52:57;;;;;;;58.10;26.10;;;;;;;-3.71;88.07;99215.11;435404;1250;108514;-40
2024/01/11 17:13:13;;;;;;;50.40;23.50;;;;;;;-3.74;88.49;99206.11;435420;1250;111676;-38
2024/01/11 17:23:20;;;;;;;48.80;22.60;;;;;;;-3.65;88.87;99207.59;435343;1256;107777;-38
2024/01/11 17:43:35;;;;;;;53.80;22.20;;;;;;;-3.58;89.70;99214.61;435367;1260;109718;-38
2024/01/11 18:03:47;;;;;;;43.70;19.80;;;;;;;-3.46;89.90;99226.73;435355;1256;112630;-38
2024/01/11 18:13:54;;;;;;;49.90;24.20;;;;;;;-3.36;90.40;99229.30;435444;1251;108390;-40
2024/01/11 18:24:00;;;;;;;70.20;30.20;;;;;;;-3.35;90.60;99227.83;435246;1256;99967;-38
2024/01/11 18:34:07;;;;;;;48.40;22.20;;;;;;;-3.40;90.57;99220.16;435291;1251;108036;-39
2024/01/11 18:44:15;;;;;;;39.70;20.50;;;;;;;-3.32;90.97;99212.80;435249;1256;99321;-39
2024/01/11 18:54:22;;;;;;;38.90;20.00;;;;;;;-3.26;91.32;99220.06;435305;1256;111672;-39
2024/01/11 19:04:30;;;;;;;50.90;24.60;;;;;;;-3.23;91.37;99220.45;435351;1251;108310;-39
2024/01/11 19:14:36;;;;;;;45.00;21.40;;;;;;;-3.26;91.60;99224.54;435322;1251;97982;-39
2024/01/11 19:34:49;;;;;;;42.20;19.20;;;;;;;-3.12;91.99;99216.23;435369;1254;98069;-40
2024/01/11 19:44:56;;;;;;;55.50;22.90;;;;;;;-3.11;91.84;99213.77;435271;1251;111644;-40
2024/01/11 19:55:01;;;;;;;58.20;23.20;;;;;;;-3.18;91.73;99218.86;435291;1251;108452;-40
2024/01/11 20:05:07;;;;;;;44.00;18.60;;;;;;;-3.19;92.09;99221.35;435391;1254;99214;-39
2024/01/11 20:15:14;;;;;;;40.00;18.40;;;;;;;-3.12;92.52;99234.17;435398;1264;107085;-38
2024/01/11 20:25:21;;;;;;;42.70;19.70;;;;;;;-3.07;93.07;99242.98;435166;1256;99263;-38
2024/01/11 20:35:40;;;;;;;39.20;20.10;;;;;;;-3.03;93.31;99251.40;435285;1251;115783;-39
2024/01/11 20:45:46;;;;;;;48.30;20.90;;;;;;;-3.06;93.67;99258.73;435490;1251;108147;-40
2024/01/11 20:55:53;;;;;;;43.50;21.00;;;;;;;-3.11;93.82;99277.39;435328;1251;99266;-39
2024/01/11 21:06:00;;;;;;;42.50;21.20;;;;;;;-3.04;93.89;99282.91;435147;1252;107699;-42
2024/01/11 21:16:07;;;;;;;40.90;19.30;;;;;;;-2.97;93.92;99294.20;435359;1251;99319;-38
2024/01/11 21:26:14;;;;;;;51.50;23.30;;;;;;;-2.90;94.21;99297.05;435282;1254;111765;-40
2024/01/11 21:46:29;;;;;;;51.70;25.40;;;;;;;-2.86;94.26;99300.99;435275;1255;99883;-40
2024/01/11 21:56:36;;;;;;;41.40;22.80;;;;;;;-2.75;94.22;99301.30;435189;1251;107437;-41
2024/01/11 22:06:43;;;;;;;58.60;28.80;;;;;;;-2.65;94.39;99313.44;435242;1251;99215;-39
2024/01/11 22:26:56;;;;;;;39.70;20.60;;;;;;;-2.60;94.86;99330.74;435117;1254;107408;-39
2024/01/11 22:37:04;;;;;;;34.00;18.80;;;;;;;-2.48;95.10;99326.27;435303;1251;99246;-40
2024/01/11 22:47:11;;;;;;;36.50;19.50;;;;;;;-2.35;94.98;99331.95;435340;1254;110218;-38
2024/01/11 22:57:18;;;;;;;53.40;26.30;;;;;;;-2.33;95.04;99331.06;435267;1254;108129;-40
2024/01/11 23:07:25;;;;;;;49.30;23.00;;;;;;;-2.36;95.06;99341.90;435292;1251;99120;-40
2024/01/11 23:17:30;;;;;;;36.60;20.40;;;;;;;-2.31;95.15;99343.31;435328;1250;111645;-40
2024/01/11 23:27:37;;;;;;;39.80;19.40;;;;;;;-2.20;95.20;99336.17;435176;1250;108206;-39
2024/01/11 23:37:45;;;;;;;32.60;17.70;;;;;;;-2.15;95.02;99345.54;435191;1250;98015;-39
2024/01/11 23:47:52;;;;;;;50.10;22.50;;;;;;;-2.09;95.10;99347.67;435325;1254;108423;-39
2024/01/11 23:58:00;;;;;;;45.60;22.20;;;;;;;-2.13;95.35;99359.56;435228;1251;99355;-39
